createdAt,value
2018-10-07T00:04:11.600Z,14.20
2018-10-07T00:06:39.763Z,14.10
2018-10-07T00:09:08.640Z,14.10
2018-10-07T00:11:37.318Z,14.10
2018-10-07T00:14:05.489Z,14.00
2018-10-07T00:16:33.660Z,14.00
2018-10-07T00:19:01.823Z,14.00
2018-10-07T00:21:29.966Z,14.00
2018-10-07T00:23:59.059Z,13.90
2018-10-07T00:26:27.236Z,13.90
2018-10-07T00:28:55.431Z,13.90
2018-10-07T00:31:23.588Z,13.80
2018-10-07T00:33:51.742Z,13.90
2018-10-07T00:36:19.901Z,13.80
2018-10-07T00:38:48.026Z,13.80
2018-10-07T00:41:16.174Z,13.80
2018-10-07T00:43:44.334Z,13.80
2018-10-07T00:46:12.491Z,13.80
2018-10-07T00:48:40.649Z,13.90
2018-10-07T00:51:08.865Z,13.90
2018-10-07T00:53:37.052Z,13.90
2018-10-07T00:56:05.215Z,13.90
2018-10-07T00:58:33.373Z,13.90
2018-10-07T01:01:01.549Z,13.90
2018-10-07T01:03:29.720Z,13.80
2018-10-07T01:05:57.883Z,13.80
2018-10-07T01:08:26.059Z,13.80
2018-10-07T01:10:54.226Z,13.80
2018-10-07T01:13:22.388Z,13.70
2018-10-07T01:15:50.554Z,13.70
2018-10-07T01:18:18.728Z,13.70
2018-10-07T01:20:46.913Z,13.60
2018-10-07T01:23:15.058Z,13.50
2018-10-07T01:25:43.241Z,13.50
2018-10-07T01:28:11.363Z,13.40
2018-10-07T01:30:39.583Z,13.40
2018-10-07T01:33:07.740Z,13.30
2018-10-07T01:35:35.894Z,13.30
2018-10-07T01:38:04.052Z,13.30
2018-10-07T01:40:32.221Z,13.30
2018-10-07T01:43:00.371Z,13.20
2018-10-07T01:45:28.568Z,13.20
2018-10-07T01:47:56.726Z,13.20
2018-10-07T01:50:24.923Z,13.30
2018-10-07T01:52:53.089Z,13.30
2018-10-07T01:55:21.270Z,13.20
2018-10-07T01:57:49.425Z,13.20
2018-10-07T02:00:17.571Z,13.10
2018-10-07T02:02:45.729Z,13.10
2018-10-07T02:05:14.012Z,13.00
2018-10-07T02:07:42.082Z,12.90
2018-10-07T02:10:10.263Z,12.90
2018-10-07T02:12:38.450Z,12.90
2018-10-07T02:15:06.639Z,12.90
2018-10-07T02:17:34.795Z,12.80
2018-10-07T02:20:03.034Z,12.80
2018-10-07T02:22:31.299Z,12.80
2018-10-07T02:24:59.795Z,12.80
2018-10-07T02:27:28.062Z,12.70
2018-10-07T02:29:56.216Z,12.80
2018-10-07T02:32:24.381Z,12.80
2018-10-07T02:34:52.544Z,12.70
2018-10-07T02:37:20.686Z,12.60
2018-10-07T02:39:48.847Z,12.50
2018-10-07T02:42:17.004Z,12.50
2018-10-07T02:44:45.176Z,12.50
2018-10-07T02:47:13.344Z,12.50
2018-10-07T02:49:41.512Z,12.40
2018-10-07T02:52:09.678Z,12.40
2018-10-07T02:54:37.841Z,12.40
2018-10-07T02:57:06.264Z,12.40
2018-10-07T02:59:34.434Z,12.40
2018-10-07T03:02:02.598Z,12.40
2018-10-07T03:04:30.795Z,12.40
2018-10-07T03:06:58.946Z,12.50
2018-10-07T03:09:27.128Z,12.50
2018-10-07T03:11:55.298Z,12.50
2018-10-07T03:14:23.466Z,12.40
2018-10-07T03:16:51.641Z,12.50
2018-10-07T03:19:19.806Z,12.50
2018-10-07T03:21:47.974Z,12.50
2018-10-07T03:24:16.149Z,12.40
2018-10-07T03:26:44.308Z,12.40
2018-10-07T03:29:12.475Z,12.40
2018-10-07T03:31:40.632Z,12.30
2018-10-07T03:34:08.786Z,12.30
2018-10-07T03:36:36.937Z,12.30
2018-10-07T03:39:06.751Z,12.30
2018-10-07T03:41:34.921Z,12.30
2018-10-07T03:44:03.102Z,12.30
2018-10-07T03:46:31.375Z,12.30
2018-10-07T03:48:59.572Z,12.30
2018-10-07T03:51:27.739Z,12.40
2018-10-07T03:53:55.931Z,12.40
2018-10-07T03:56:24.098Z,12.30
2018-10-07T03:58:52.269Z,12.30
2018-10-07T04:01:20.448Z,12.30
2018-10-07T04:03:48.598Z,12.30
2018-10-07T04:06:16.771Z,12.30
2018-10-07T04:08:44.945Z,12.30
2018-10-07T04:11:13.118Z,12.30
2018-10-07T04:13:41.308Z,12.20
2018-10-07T04:16:09.498Z,12.20
2018-10-07T04:18:37.666Z,12.20
2018-10-07T04:21:05.879Z,12.20
2018-10-07T04:23:34.031Z,12.20
2018-10-07T04:26:02.202Z,12.10
2018-10-07T04:28:30.393Z,12.00
2018-10-07T04:30:58.588Z,12.00
2018-10-07T04:33:26.750Z,12.00
2018-10-07T04:35:54.933Z,11.90
2018-10-07T04:38:23.140Z,11.80
2018-10-07T04:40:51.369Z,11.80
2018-10-07T04:43:19.550Z,11.70
2018-10-07T04:45:47.789Z,11.80
2018-10-07T04:48:15.961Z,11.70
2018-10-07T04:50:44.181Z,11.70
2018-10-07T04:53:12.380Z,11.70
2018-10-07T04:55:40.570Z,11.70
2018-10-07T04:58:09.472Z,11.70
2018-10-07T05:00:37.684Z,11.70
2018-10-07T05:03:05.901Z,11.60
2018-10-07T05:05:34.154Z,11.60
2018-10-07T05:08:02.349Z,11.60
2018-10-07T05:10:48.035Z,11.50
2018-10-07T05:13:17.959Z,11.40
2018-10-07T05:15:46.429Z,11.40
2018-10-07T05:18:14.629Z,11.40
2018-10-07T05:20:42.826Z,11.40
2018-10-07T05:23:11.046Z,11.30
2018-10-07T05:25:39.222Z,11.30
2018-10-07T05:28:07.487Z,11.40
2018-10-07T05:30:36.745Z,11.50
2018-10-07T05:33:05.062Z,11.40
2018-10-07T05:35:33.118Z,11.40
2018-10-07T05:38:01.573Z,11.40
2018-10-07T05:40:29.822Z,11.40
2018-10-07T05:42:58.187Z,11.40
2018-10-07T05:45:26.690Z,11.30
2018-10-07T05:47:55.665Z,11.30
2018-10-07T05:50:24.439Z,11.50
2018-10-07T05:52:53.681Z,11.50
2018-10-07T05:55:22.236Z,11.40
2018-10-07T05:57:56.274Z,11.50
2018-10-07T06:00:24.773Z,11.50
2018-10-07T06:02:53.891Z,11.50
2018-10-07T06:05:22.099Z,11.60
2018-10-07T06:07:50.683Z,11.60
2018-10-07T06:10:18.948Z,11.80
2018-10-07T06:12:47.142Z,11.90
2018-10-07T06:15:25.358Z,12.10
2018-10-07T06:17:53.596Z,12.40
2018-10-07T06:20:21.779Z,12.60
2018-10-07T06:22:49.982Z,12.80
2018-10-07T06:25:18.155Z,13.10
2018-10-07T06:27:46.334Z,13.30
2018-10-07T06:30:14.530Z,13.50
2018-10-07T06:32:42.691Z,13.50
2018-10-07T06:35:10.850Z,13.40
2018-10-07T06:37:39.026Z,13.30
2018-10-07T06:40:07.188Z,13.00
2018-10-07T06:42:35.446Z,12.80
2018-10-07T06:45:03.620Z,12.60
2018-10-07T06:47:31.794Z,12.40
2018-10-07T06:49:59.970Z,12.40
2018-10-07T06:52:28.143Z,12.40
2018-10-07T06:54:57.433Z,12.40
2018-10-07T07:00:13.598Z,12.90
2018-10-07T07:02:41.781Z,13.40
2018-10-07T07:05:10.012Z,14.00
2018-10-07T07:07:38.183Z,14.50
2018-10-07T07:10:06.680Z,14.90
2018-10-07T07:12:35.002Z,15.40
2018-10-07T07:15:03.205Z,15.70
2018-10-07T07:31:27.984Z,16.50
2018-10-07T07:34:04.230Z,18.00
2018-10-07T07:36:36.530Z,18.10
2018-10-07T07:39:13.995Z,18.20
2018-10-07T07:41:42.414Z,18.50
2018-10-07T07:44:11.255Z,18.90
2018-10-07T07:46:40.185Z,19.10
2018-10-07T07:49:08.820Z,19.30
2018-10-07T07:51:37.751Z,19.40
2018-10-07T07:54:06.346Z,19.40
2018-10-07T07:56:36.723Z,19.80
2018-10-07T07:59:05.426Z,20.20
2018-10-07T08:01:34.207Z,20.50
2018-10-07T08:04:02.439Z,20.40
2018-10-07T08:06:30.837Z,20.50
2018-10-07T08:08:59.196Z,20.60
2018-10-07T08:11:27.710Z,20.80
2018-10-07T08:13:56.105Z,21.00
2018-10-07T08:16:24.463Z,21.30
2018-10-07T08:18:52.717Z,21.60
2018-10-07T08:21:21.294Z,21.70
2018-10-07T08:23:49.923Z,22.10
2018-10-07T08:26:18.278Z,22.00
2018-10-07T08:28:46.708Z,22.20
2018-10-07T08:31:15.247Z,22.40
2018-10-07T08:33:43.618Z,22.60
2018-10-07T08:36:11.949Z,22.80
2018-10-07T08:38:41.362Z,23.10
2018-10-07T08:41:09.914Z,23.20
2018-10-07T08:43:38.342Z,23.40
2018-10-07T08:46:06.677Z,23.30
2018-10-07T08:48:34.987Z,23.40
2018-10-07T08:51:03.401Z,23.60
2018-10-07T08:53:31.856Z,23.50
2018-10-07T08:56:00.234Z,23.60
2018-10-07T08:58:28.706Z,23.80
2018-10-07T09:00:56.988Z,23.90
2018-10-07T09:03:25.311Z,23.60
2018-10-07T09:05:53.745Z,23.50
2018-10-07T09:08:22.122Z,23.10
2018-10-07T09:10:50.475Z,22.70
2018-10-07T09:13:19.349Z,23.00
2018-10-07T09:15:47.803Z,23.30
2018-10-07T09:18:16.299Z,23.50
2018-10-07T09:20:44.798Z,23.30
2018-10-07T09:23:13.217Z,23.20
2018-10-07T09:25:41.697Z,23.20
2018-10-07T09:28:10.025Z,23.20
2018-10-07T09:30:38.731Z,23.00
2018-10-07T09:33:07.048Z,23.00
2018-10-07T09:35:35.329Z,23.00
2018-10-07T09:38:03.789Z,23.20
2018-10-07T09:40:32.126Z,23.40
2018-10-07T09:43:00.492Z,23.70
2018-10-07T09:45:28.856Z,24.10
2018-10-07T09:47:57.114Z,24.70
2018-10-07T09:50:25.381Z,25.20
2018-10-07T09:52:53.658Z,25.40
2018-10-07T09:55:21.886Z,25.50
2018-10-07T09:57:50.213Z,25.40
2018-10-07T10:00:23.938Z,25.40
2018-10-07T10:02:52.208Z,25.50
2018-10-07T10:05:20.429Z,25.70
2018-10-07T10:07:48.569Z,25.90
2018-10-07T10:10:16.786Z,26.40
2018-10-07T10:12:45.001Z,26.60
2018-10-07T10:15:13.220Z,26.30
2018-10-07T10:17:45.928Z,26.10
2018-10-07T10:20:14.606Z,26.00
2018-10-07T10:24:58.820Z,25.80
2018-10-07T10:27:35.684Z,25.60
2018-10-07T10:30:09.196Z,25.10
2018-10-07T10:32:47.618Z,25.00
2018-10-07T10:35:20.895Z,24.80
2018-10-07T10:38:20.551Z,24.90
2018-10-07T10:40:57.152Z,24.80
2018-10-07T10:43:30.928Z,25.00
2018-10-07T10:46:11.191Z,25.30
2018-10-07T10:48:46.801Z,25.30
2018-10-07T10:52:24.472Z,25.00
2018-10-07T10:55:03.865Z,24.60
2018-10-07T10:57:49.134Z,24.20
2018-10-07T11:00:23.405Z,24.30
2018-10-07T11:03:10.212Z,24.70
2018-10-07T11:05:51.910Z,24.90
2018-10-07T11:08:33.460Z,25.50
2018-10-07T11:11:14.879Z,25.90
2018-10-07T11:13:50.895Z,26.30
2018-10-07T11:16:56.209Z,26.70
2018-10-07T11:19:34.712Z,27.00
2018-10-07T11:22:16.684Z,27.20
2018-10-07T11:24:57.150Z,27.00
2018-10-07T11:28:39.031Z,27.30
2018-10-07T11:33:21.135Z,27.50
2018-10-07T11:35:58.702Z,27.50
2018-10-07T11:38:37.580Z,27.70
2018-10-07T11:41:18.835Z,27.60
2018-10-07T11:43:52.062Z,27.30
2018-10-07T11:46:30.703Z,27.30
2018-10-07T11:49:15.824Z,27.50
2018-10-07T11:51:56.536Z,27.70
2018-10-07T11:54:41.270Z,26.50
2018-10-07T11:57:09.503Z,25.90
2018-10-07T11:59:37.659Z,26.40
2018-10-07T12:02:06.193Z,27.00
2018-10-07T12:04:34.353Z,27.70
2018-10-07T12:07:02.514Z,28.10
2018-10-07T12:09:30.786Z,28.20
2018-10-07T12:11:58.974Z,28.20
2018-10-07T12:14:27.220Z,28.20
2018-10-07T12:16:55.513Z,28.40
2018-10-07T12:19:23.657Z,28.60
2018-10-07T12:21:51.859Z,28.30
2018-10-07T12:24:20.001Z,28.30
2018-10-07T12:26:48.171Z,28.30
2018-10-07T12:29:16.318Z,28.10
2018-10-07T12:31:44.498Z,28.20
2018-10-07T12:34:12.948Z,28.40
2018-10-07T12:36:41.175Z,28.30
2018-10-07T12:39:09.377Z,28.30
2018-10-07T12:41:37.585Z,28.30
2018-10-07T12:44:05.797Z,28.50
2018-10-07T12:46:34.039Z,28.40
2018-10-07T12:49:02.223Z,28.40
2018-10-07T12:51:30.400Z,28.30
2018-10-07T12:53:58.640Z,28.20
2018-10-07T12:56:26.802Z,27.90
2018-10-07T12:58:55.101Z,27.40
2018-10-07T13:01:23.326Z,27.20
2018-10-07T13:03:51.671Z,27.10
2018-10-07T13:06:19.795Z,27.30
2018-10-07T13:08:47.974Z,27.50
2018-10-07T13:11:16.125Z,27.50
2018-10-07T13:13:44.306Z,27.50
2018-10-07T13:16:12.474Z,27.60
2018-10-07T13:18:40.647Z,27.80
2018-10-07T13:21:08.814Z,27.80
2018-10-07T13:23:37.118Z,27.80
2018-10-07T13:26:05.306Z,27.70
2018-10-07T13:28:33.519Z,27.60
2018-10-07T13:31:01.775Z,27.50
2018-10-07T13:33:30.001Z,27.50
2018-10-07T13:35:58.142Z,27.40
2018-10-07T13:38:26.326Z,27.40
2018-10-07T13:40:54.522Z,27.20
2018-10-07T13:43:22.700Z,27.30
2018-10-07T13:45:50.918Z,27.60
2018-10-07T13:48:19.180Z,27.60
2018-10-07T13:50:47.335Z,27.80
2018-10-07T13:53:15.560Z,27.50
2018-10-07T13:55:43.727Z,27.20
2018-10-07T13:58:11.975Z,27.10
2018-10-07T14:00:40.167Z,27.00
2018-10-07T14:03:08.362Z,26.80
2018-10-07T14:05:36.638Z,26.80
2018-10-07T14:08:04.822Z,26.50
2018-10-07T14:10:33.195Z,26.50
2018-10-07T14:13:01.558Z,26.60
2018-10-07T14:15:29.743Z,26.50
2018-10-07T14:17:58.004Z,26.60
2018-10-07T14:20:26.201Z,26.50
2018-10-07T14:22:54.410Z,26.30
2018-10-07T14:25:22.577Z,26.20
2018-10-07T14:27:50.842Z,26.00
2018-10-07T14:30:18.981Z,25.60
2018-10-07T14:32:47.123Z,25.60
2018-10-07T14:35:15.270Z,25.60
2018-10-07T14:37:43.396Z,25.60
2018-10-07T14:40:11.583Z,25.40
2018-10-07T14:42:39.775Z,25.30
2018-10-07T14:45:07.926Z,25.30
2018-10-07T14:47:36.099Z,25.30
2018-10-07T14:50:04.397Z,25.20
2018-10-07T14:52:32.577Z,25.10
2018-10-07T14:55:00.805Z,25.00
2018-10-07T14:57:28.900Z,25.00
2018-10-07T14:59:57.114Z,24.90
2018-10-07T15:02:25.331Z,24.80
2018-10-07T15:04:53.743Z,24.70
2018-10-07T15:07:21.907Z,24.60
2018-10-07T15:09:50.104Z,24.50
2018-10-07T15:12:18.301Z,24.40
2018-10-07T15:14:46.487Z,24.30
2018-10-07T15:17:14.651Z,24.20
2018-10-07T15:19:42.818Z,24.20
2018-10-07T15:22:10.971Z,24.20
2018-10-07T15:24:39.244Z,24.10
2018-10-07T15:27:07.450Z,24.10
2018-10-07T15:29:35.734Z,24.00
2018-10-07T15:32:03.854Z,23.80
2018-10-07T15:34:32.714Z,23.70
2018-10-07T15:37:00.875Z,23.60
2018-10-07T15:39:29.013Z,23.50
2018-10-07T15:41:57.179Z,23.40
2018-10-07T15:44:25.347Z,23.40
2018-10-07T15:46:53.511Z,23.40
2018-10-07T15:49:21.690Z,23.30
2018-10-07T15:51:49.838Z,23.20
2018-10-07T15:54:18.023Z,23.10
2018-10-07T15:56:46.231Z,23.00
2018-10-07T15:59:14.333Z,22.90
2018-10-07T16:01:42.514Z,22.80
2018-10-07T16:04:10.688Z,22.70
2018-10-07T16:06:38.880Z,22.60
2018-10-07T16:09:08.415Z,22.50
2018-10-07T16:11:36.565Z,22.40
2018-10-07T16:14:04.730Z,22.30
2018-10-07T16:16:32.894Z,22.20
2018-10-07T16:19:01.066Z,22.10
2018-10-07T16:21:29.216Z,22.10
2018-10-07T16:23:57.454Z,22.00
2018-10-07T16:26:25.718Z,22.00
2018-10-07T16:28:53.757Z,21.80
2018-10-07T16:31:21.935Z,21.80
2018-10-07T16:33:50.057Z,21.70
2018-10-07T16:36:18.243Z,21.50
2018-10-07T16:38:46.394Z,21.50
2018-10-07T16:41:14.558Z,21.40
2018-10-07T16:43:42.714Z,21.30
2018-10-07T16:46:10.876Z,21.20
2018-10-07T16:48:39.046Z,21.20
2018-10-07T16:51:13.931Z,21.10
2018-10-07T16:53:42.406Z,21.00
2018-10-07T16:56:10.572Z,20.90
2018-10-07T16:58:38.786Z,20.90
2018-10-07T17:01:07.021Z,20.70
2018-10-07T17:03:35.237Z,20.60
2018-10-07T17:06:03.442Z,20.60
2018-10-07T17:08:31.626Z,20.50
2018-10-07T17:10:59.891Z,20.50
2018-10-07T17:13:28.138Z,20.40
2018-10-07T17:15:56.291Z,20.30
2018-10-07T17:18:24.511Z,20.20
2018-10-07T17:20:52.775Z,20.10
2018-10-07T17:23:20.886Z,20.10
2018-10-07T17:25:49.075Z,20.00
2018-10-07T17:28:17.306Z,20.00
2018-10-07T17:30:45.464Z,19.80
2018-10-07T17:33:13.610Z,19.90
2018-10-07T17:35:41.847Z,19.70
2018-10-07T17:38:10.004Z,19.70
2018-10-07T17:40:38.178Z,19.60
2018-10-07T17:43:06.347Z,19.50
2018-10-07T17:45:34.506Z,19.40
2018-10-07T17:48:02.658Z,19.40
2018-10-07T17:50:30.802Z,19.30
2018-10-07T17:52:58.933Z,19.30
2018-10-07T17:55:27.352Z,19.20
2018-10-07T17:57:55.521Z,19.20
2018-10-07T18:00:23.646Z,19.10
2018-10-07T18:02:51.893Z,19.10
2018-10-07T18:05:19.969Z,19.00
2018-10-07T18:07:48.123Z,18.90
2018-10-07T18:10:16.300Z,18.90
2018-10-07T18:12:44.460Z,18.80
2018-10-07T18:15:12.622Z,18.80
2018-10-07T18:17:40.846Z,18.80
2018-10-07T18:20:08.986Z,18.80
2018-10-07T18:22:37.163Z,18.70
2018-10-07T18:25:08.499Z,18.70
2018-10-07T18:27:36.640Z,18.70
2018-10-07T18:30:04.802Z,18.60
2018-10-07T18:32:32.992Z,18.60
2018-10-07T18:35:01.596Z,18.50
2018-10-07T18:37:29.756Z,18.50
2018-10-07T18:39:57.926Z,18.40
2018-10-07T18:42:26.062Z,18.40
2018-10-07T18:44:54.235Z,18.30
2018-10-07T18:47:22.428Z,18.30
2018-10-07T18:49:50.582Z,18.30
2018-10-07T18:52:18.756Z,18.20
2018-10-07T18:54:46.980Z,18.20
2018-10-07T18:57:15.084Z,18.20
2018-10-07T18:59:43.230Z,18.10
2018-10-07T19:02:11.370Z,17.90
2018-10-07T19:04:39.531Z,17.80
2018-10-07T19:07:07.702Z,17.70
2018-10-07T19:09:35.898Z,17.60
2018-10-07T19:12:04.043Z,17.40
2018-10-07T19:14:32.217Z,17.40
2018-10-07T19:17:00.409Z,17.40
2018-10-07T19:19:28.624Z,17.20
2018-10-07T19:21:56.780Z,17.10
2018-10-07T19:24:24.916Z,17.00
2018-10-07T19:26:53.082Z,16.90
2018-10-07T19:29:21.222Z,16.80
2018-10-07T19:31:49.438Z,16.80
2018-10-07T19:34:17.596Z,16.80
2018-10-07T19:36:45.866Z,16.90
2018-10-07T19:39:14.008Z,16.80
2018-10-07T19:41:42.235Z,16.60
2018-10-07T19:44:10.411Z,16.40
2018-10-07T19:46:38.552Z,16.30
2018-10-07T19:49:06.809Z,16.30
2018-10-07T19:51:34.949Z,16.20
2018-10-07T19:54:03.210Z,16.20
2018-10-07T19:56:31.354Z,16.20
2018-10-07T19:58:59.570Z,16.30
2018-10-07T20:01:27.737Z,16.20
2018-10-07T20:03:55.908Z,16.20
2018-10-07T20:06:24.060Z,16.10
2018-10-07T20:08:52.213Z,16.10
2018-10-07T20:11:20.353Z,16.00
2018-10-07T20:13:48.514Z,15.80
2018-10-07T20:16:16.717Z,15.70
2018-10-07T20:18:44.878Z,15.70
2018-10-07T20:21:13.026Z,15.70
2018-10-07T20:23:41.166Z,15.60
2018-10-07T20:26:09.461Z,15.70
2018-10-07T20:28:37.571Z,15.60
2018-10-07T20:31:05.779Z,15.60
2018-10-07T20:33:33.934Z,15.60
2018-10-07T20:36:02.099Z,15.60
2018-10-07T20:38:30.271Z,15.60
2018-10-07T20:40:58.484Z,15.60
2018-10-07T20:43:26.641Z,15.50
2018-10-07T20:45:54.795Z,15.40
2018-10-07T20:48:22.953Z,15.20
2018-10-07T20:50:51.097Z,14.90
2018-10-07T20:53:19.276Z,14.90
2018-10-07T20:55:47.436Z,15.00
2018-10-07T20:58:15.600Z,14.90
2018-10-07T21:00:43.792Z,14.90
2018-10-07T21:03:11.984Z,14.90
2018-10-07T21:05:40.167Z,14.90
2018-10-07T21:08:08.416Z,14.90
2018-10-07T21:10:36.589Z,14.90
2018-10-07T21:13:04.773Z,14.80
2018-10-07T21:15:32.962Z,14.80
2018-10-07T21:18:01.158Z,14.70
2018-10-07T21:20:29.329Z,14.60
2018-10-07T21:22:57.479Z,14.50
2018-10-07T21:25:25.653Z,14.40
2018-10-07T21:27:53.897Z,14.30
2018-10-07T21:30:22.059Z,14.30
2018-10-07T21:32:50.228Z,14.20
2018-10-07T21:35:18.383Z,14.00
2018-10-07T21:37:46.586Z,14.00
2018-10-07T21:40:14.756Z,13.90
2018-10-07T21:42:42.917Z,13.90
2018-10-07T21:45:11.063Z,13.90
2018-10-07T21:47:39.220Z,13.90
2018-10-07T21:50:07.553Z,13.90
2018-10-07T21:52:35.808Z,13.90
2018-10-07T21:55:03.842Z,13.80
2018-10-07T21:57:32.021Z,13.80
2018-10-07T22:00:00.194Z,13.80
2018-10-07T22:02:28.349Z,13.90
2018-10-07T22:04:56.531Z,13.90
2018-10-07T22:07:24.720Z,13.80
2018-10-07T22:09:52.932Z,13.80
2018-10-07T22:12:21.079Z,13.80
2018-10-07T22:14:49.242Z,13.70
2018-10-07T22:17:18.017Z,13.70
2018-10-07T22:19:46.337Z,13.70
2018-10-07T22:22:14.594Z,13.80
2018-10-07T22:24:42.741Z,13.70
2018-10-07T22:27:10.943Z,13.70
2018-10-07T22:29:39.125Z,13.70
2018-10-07T22:32:07.315Z,13.50
2018-10-07T22:34:35.633Z,13.40
2018-10-07T22:37:03.837Z,13.40
2018-10-07T22:39:32.019Z,13.30
2018-10-07T22:42:00.179Z,13.30
2018-10-07T22:44:28.343Z,13.40
2018-10-07T22:46:56.540Z,13.30
2018-10-07T22:49:24.718Z,13.30
2018-10-07T22:51:52.893Z,13.30
2018-10-07T22:54:21.069Z,13.30
2018-10-07T22:56:49.242Z,13.20
2018-10-07T22:59:17.416Z,13.20
2018-10-07T23:01:45.604Z,13.20
2018-10-07T23:04:13.858Z,13.20
2018-10-07T23:06:42.046Z,13.20
2018-10-07T23:09:11.718Z,13.10
2018-10-07T23:11:39.945Z,13.00
2018-10-07T23:14:08.346Z,12.80
2018-10-07T23:16:36.592Z,12.70
2018-10-07T23:19:04.750Z,12.70
2018-10-07T23:21:32.937Z,12.60
2018-10-07T23:24:01.160Z,12.50
2018-10-07T23:26:29.314Z,12.40
2018-10-07T23:28:57.539Z,12.50
2018-10-07T23:31:25.828Z,12.60
2018-10-07T23:33:54.090Z,12.60
2018-10-07T23:36:22.262Z,12.60
2018-10-07T23:38:50.491Z,12.50
2018-10-07T23:41:18.720Z,12.50
2018-10-07T23:43:47.246Z,12.50
2018-10-07T23:46:15.460Z,12.60
2018-10-07T23:48:43.642Z,12.60
2018-10-07T23:51:11.835Z,12.70
2018-10-07T23:53:40.006Z,12.50
2018-10-07T23:56:08.207Z,12.50
2018-10-07T23:58:36.405Z,12.50
